Time;durP1;ratioP1;P1;durP2;ratioP2;P2;SDS_P1;SDS_P2;PMS_P1;PMS_P2;Temp;Humidity;BMP_temperature;BMP_pressure;BME280_temperature;BME280_humidity;BME280_pressure;Samples;Min_cycle;Max_cycle;Signal;HPM_P1;HPM_P2
2023/04/06 00:01:02;;;;;;;26.38;15.60;;;;;;;6.05;80.28;101804.75;4981096;28;20038;-85
2023/04/06 00:03:34;;;;;;;24.05;15.10;;;;;;;6.05;80.25;101796.09;4980644;28;20259;-86
2023/04/06 00:06:13;;;;;;;18.27;13.23;;;;;;;6.05;80.28;101791.75;4962932;28;20125;-86
2023/04/06 00:08:49;;;;;;;21.92;13.82;;;;;;;6.04;80.51;101795.25;4980653;28;20169;-86
2023/04/06 00:11:18;;;;;;;20.98;13.77;;;;;;;6.05;80.63;101791.75;4980920;28;20053;-85
2023/04/06 00:13:50;;;;;;;18.98;12.90;;;;;;;6.05;80.76;101794.34;4965209;28;20047;-86
2023/04/06 00:16:21;;;;;;;18.08;13.10;;;;;;;6.05;80.90;101783.94;4980676;28;20034;-86
2023/04/06 00:18:59;;;;;;;18.70;12.90;;;;;;;6.04;81.10;101782.22;4974486;28;20066;-86
2023/04/06 00:21:35;;;;;;;19.63;12.68;;;;;;;6.07;81.06;101789.13;4977897;28;20050;-86
2023/04/06 00:34:52;;;;;;;;;;;;;;;;;;;;;
2023/04/06 00:37:42;;;;;;;;;;;;;;;;;;;;;
2023/04/06 00:40:47;;;;;;;;;;;;;;;;;;;;;
2023/04/06 00:43:52;;;;;;;17.45;11.43;;;;;;;5.99;81.44;101758.00;4908932;29;20067;-86
2023/04/06 00:46:48;;;;;;;15.27;10.80;;;;;;;5.98;81.33;101748.44;4981738;28;20351;-85
2023/04/06 00:49:25;;;;;;;14.57;11.15;;;;;;;5.99;81.32;101751.94;4981213;28;20050;-86
2023/04/06 00:52:12;;;;;;;12.38;10.05;;;;;;;6.00;81.53;101741.50;4980363;28;20345;-86
2023/04/06 00:54:42;;;;;;;15.95;11.32;;;;;;;5.99;81.68;101742.38;4975012;28;20398;-86
2023/04/06 00:57:23;;;;;;;16.13;10.80;;;;;;;5.98;81.41;101735.44;4979934;28;20283;-86
2023/04/06 01:00:10;;;;;;;15.43;10.40;;;;;;;5.98;81.76;101734.59;4980894;28;20035;-85
2023/04/06 01:05:12;;;;;;;14.55;10.77;;;;;;;5.98;81.73;101732.00;4305305;26;20054;-72
2023/04/06 01:07:37;;;;;;;13.50;9.73;;;;;;;5.97;81.93;101725.94;5000473;28;20391;-72
2023/04/06 01:10:04;;;;;;;12.20;8.77;;;;;;;5.99;82.10;101731.13;4998787;28;20034;-72
2023/04/06 01:12:29;;;;;;;13.52;9.93;;;;;;;6.00;82.04;101725.03;4998594;28;20057;-70
2023/04/06 01:14:55;;;;;;;10.13;8.88;;;;;;;6.00;82.15;101709.44;4999686;28;20237;-70
2023/04/06 01:17:21;;;;;;;14.77;10.52;;;;;;;6.00;82.29;101712.91;4999907;28;20042;-70
2023/04/06 01:19:49;;;;;;;12.80;9.55;;;;;;;6.00;82.37;101710.28;4999862;28;20322;-70
2023/04/06 01:22:17;;;;;;;10.57;8.65;;;;;;;6.01;82.50;101708.59;4999654;28;20169;-70
2023/04/06 01:24:43;;;;;;;10.40;8.93;;;;;;;6.02;82.46;101712.88;4999426;28;20048;-70
2023/04/06 01:27:09;;;;;;;10.52;8.88;;;;;;;6.01;82.70;101704.22;4999653;28;20049;-70
2023/04/06 01:29:35;;;;;;;9.93;8.70;;;;;;;6.01;82.49;101695.59;4999098;28;20080;-70
2023/04/06 01:32:00;;;;;;;12.18;9.57;;;;;;;6.01;82.62;101693.84;4999735;28;20233;-70
2023/04/06 01:34:25;;;;;;;15.73;10.27;;;;;;;6.00;82.40;101693.84;4999659;28;20357;-71
2023/04/06 01:36:51;;;;;;;13.15;9.07;;;;;;;6.01;82.51;101695.59;4998482;28;20042;-71
2023/04/06 01:39:16;;;;;;;13.80;9.68;;;;;;;6.00;82.48;101684.28;4998719;28;20080;-72
2023/04/06 01:41:42;;;;;;;9.93;8.57;;;;;;;5.99;82.43;101676.53;4998622;28;20038;-72
2023/04/06 01:44:07;;;;;;;11.77;9.40;;;;;;;5.99;81.98;101671.34;4999361;28;20042;-70
2023/04/06 01:46:33;;;;;;;13.00;9.93;;;;;;;5.98;81.92;101686.03;4999352;28;20372;-70
2023/04/06 01:48:58;;;;;;;11.77;9.10;;;;;;;5.98;82.04;101682.59;4998953;28;20145;-70
2023/04/06 01:51:25;;;;;;;15.05;10.65;;;;;;;5.99;82.20;101671.34;4999495;28;20089;-70
2023/04/06 01:53:51;;;;;;;13.77;9.95;;;;;;;5.99;82.00;101671.34;4998372;28;20049;-70
2023/04/06 01:56:16;;;;;;;10.30;8.68;;;;;;;5.98;82.10;101667.84;4998530;28;20058;-70
2023/04/06 01:58:42;;;;;;;9.93;8.45;;;;;;;6.00;82.24;101666.09;4998484;28;20037;-70
2023/04/06 02:01:07;;;;;;;9.35;8.45;;;;;;;6.00;82.32;101657.44;4999226;28;20038;-70
2023/04/06 02:03:33;;;;;;;11.00;8.80;;;;;;;6.00;82.33;101657.44;4997851;28;20103;-70
2023/04/06 02:05:58;;;;;;;12.82;9.43;;;;;;;6.00;82.33;101653.09;4998985;28;20046;-70
2023/04/06 02:08:23;;;;;;;11.77;9.57;;;;;;;6.00;82.22;101660.03;4998769;28;20037;-70
2023/04/06 02:10:49;;;;;;;10.35;9.20;;;;;;;6.00;82.24;101653.09;4998288;28;20406;-70
2023/04/06 02:13:15;;;;;;;12.85;9.63;;;;;;;6.02;82.36;101655.69;4998690;28;20045;-70
2023/04/06 02:15:40;;;;;;;11.52;9.07;;;;;;;6.03;82.69;101649.63;4998167;28;20045;-70
2023/04/06 02:18:05;;;;;;;10.30;8.30;;;;;;;6.03;82.76;101644.41;4998686;28;20042;-70
2023/04/06 02:20:31;;;;;;;10.55;9.45;;;;;;;6.04;82.88;101648.72;4997343;28;20077;-70
2023/04/06 02:22:59;;;;;;;11.68;9.15;;;;;;;6.02;82.87;101635.75;4997674;28;20042;-72
2023/04/06 02:25:24;;;;;;;13.55;9.55;;;;;;;6.03;82.75;101641.81;4998728;28;20249;-72
2023/04/06 02:27:50;;;;;;;11.07;9.23;;;;;;;6.04;82.98;101640.91;4997829;28;20038;-72
2023/04/06 02:30:15;;;;;;;13.07;10.38;;;;;;;6.04;82.98;101633.13;4998468;28;20088;-72
2023/04/06 02:32:41;;;;;;;12.13;9.77;;;;;;;6.04;83.13;101633.13;4997950;28;20045;-72
2023/04/06 02:35:06;;;;;;;10.25;8.88;;;;;;;6.04;83.04;101628.81;4998535;28;20144;-72
2023/04/06 02:37:32;;;;;;;11.68;9.77;;;;;;;6.05;83.27;101629.66;4998318;28;20038;-72
2023/04/06 02:39:57;;;;;;;14.05;9.60;;;;;;;6.06;83.41;101623.59;4998865;28;20038;-72
2023/04/06 02:42:23;;;;;;;11.85;9.65;;;;;;;6.06;83.46;101629.66;4999155;28;20038;-72
2023/04/06 02:44:48;;;;;;;13.15;9.60;;;;;;;6.06;83.55;101621.84;4997746;28;20072;-72
2023/04/06 02:47:13;;;;;;;14.40;9.73;;;;;;;6.06;83.60;101616.66;5006234;28;20257;-72
2023/04/06 02:49:39;;;;;;;12.98;9.70;;;;;;;6.07;83.48;101620.09;4986743;28;20085;-72
2023/04/06 02:52:04;;;;;;;12.40;9.32;;;;;;;6.07;83.63;101604.50;4998451;28;20042;-72
2023/04/06 02:54:30;;;;;;;11.68;9.07;;;;;;;6.07;83.71;101612.31;4997875;28;20121;-73
2023/04/06 02:56:55;;;;;;;12.23;9.52;;;;;;;6.07;83.67;101607.09;4996196;28;20049;-73
2023/04/06 02:59:21;;;;;;;12.50;9.52;;;;;;;6.07;83.72;101607.09;4997884;28;20046;-73
2023/04/06 03:01:46;;;;;;;16.92;11.20;;;;;;;6.06;83.43;101600.19;4996014;28;20042;-73
2023/04/06 03:04:11;;;;;;;17.52;10.38;;;;;;;6.05;83.20;101603.66;4997596;28;20050;-73
2023/04/06 03:06:37;;;;;;;13.07;10.00;;;;;;;6.06;83.25;101600.19;4994471;28;20056;-72
2023/04/06 03:09:02;;;;;;;13.30;10.10;;;;;;;6.05;83.37;101594.09;4988594;28;20340;-73
2023/04/06 03:11:28;;;;;;;14.50;10.25;;;;;;;6.06;83.45;101603.66;4997713;28;20297;-73
2023/04/06 03:13:53;;;;;;;13.70;9.90;;;;;;;6.07;83.69;101594.09;4997137;28;20076;-73
2023/04/06 03:16:19;;;;;;;13.27;9.82;;;;;;;6.08;83.76;101598.44;4997556;28;20078;-72
2023/04/06 03:18:44;;;;;;;13.88;10.63;;;;;;;6.07;83.76;101601.91;4997291;28;20042;-73
2023/04/06 03:21:10;;;;;;;13.85;10.18;;;;;;;6.09;83.86;101593.22;4997538;28;20288;-73
2023/04/06 03:23:36;;;;;;;13.57;10.40;;;;;;;6.09;83.98;101597.53;4997588;28;20060;-71
2023/04/06 03:26:02;;;;;;;13.13;10.18;;;;;;;6.08;83.95;101586.28;4997733;28;20042;-71
2023/04/06 03:28:28;;;;;;;14.88;10.20;;;;;;;6.09;84.06;101590.63;4997658;28;20041;-71
2023/04/06 03:30:53;;;;;;;12.38;9.13;;;;;;;6.10;84.12;101586.28;4996863;28;20042;-71
2023/04/06 03:33:19;;;;;;;12.40;9.23;;;;;;;6.10;84.27;101581.94;4997971;28;20104;-70
2023/04/06 03:35:44;;;;;;;12.90;9.70;;;;;;;6.10;84.35;101579.31;5001337;28;20049;-71
2023/04/06 03:38:10;;;;;;;14.00;10.45;;;;;;;6.10;84.38;101583.69;5001477;28;20292;-71
2023/04/06 03:40:35;;;;;;;14.82;10.48;;;;;;;6.10;84.49;101581.94;5001332;28;20088;-71
2023/04/06 03:43:00;;;;;;;13.68;10.20;;;;;;;6.10;84.49;101579.31;5001757;28;20034;-71
2023/04/06 03:45:26;;;;;;;15.77;10.90;;;;;;;6.10;84.54;101571.53;5001614;28;20109;-71
2023/04/06 03:47:51;;;;;;;13.70;10.05;;;;;;;6.11;84.55;101572.38;5001184;28;20330;-71
2023/04/06 03:50:16;;;;;;;13.23;10.45;;;;;;;6.12;84.74;101576.72;5001559;28;20068;-70
2023/04/06 03:52:42;;;;;;;13.98;9.60;;;;;;;6.12;84.63;101568.91;5001187;28;20169;-71
2023/04/06 03:55:08;;;;;;;15.27;10.25;;;;;;;6.12;84.72;101571.50;5001539;28;20045;-71
2023/04/06 03:57:33;;;;;;;14.55;9.80;;;;;;;6.12;84.60;101574.97;5000449;28;20034;-71
2023/04/06 03:59:59;;;;;;;14.23;10.30;;;;;;;6.11;84.86;101573.25;5001682;28;20038;-71
2023/04/06 04:02:25;;;;;;;17.02;10.02;;;;;;;6.13;84.84;101578.41;5001123;28;20250;-71
2023/04/06 04:04:50;;;;;;;15.32;10.05;;;;;;;6.12;84.81;101574.13;5000870;28;20058;-72
2023/04/06 04:07:15;;;;;;;15.45;10.18;;;;;;;6.12;84.95;101572.38;5000919;28;20050;-73
2023/04/06 04:09:41;;;;;;;14.88;10.93;;;;;;;6.12;84.90;101569.75;4965131;28;20114;-73
2023/04/06 04:12:06;;;;;;;15.77;10.70;;;;;;;6.13;84.90;101565.41;4999115;28;20069;-73
2023/04/06 04:14:32;;;;;;;18.05;11.05;;;;;;;6.13;84.89;101566.31;5001131;28;20125;-73
2023/04/06 04:16:57;;;;;;;15.90;11.05;;;;;;;6.13;84.84;101566.31;5001083;28;20364;-73
2023/04/06 04:19:22;;;;;;;15.65;11.15;;;;;;;6.14;85.18;101559.34;5001032;28;20046;-73
2023/04/06 04:21:48;;;;;;;16.27;11.57;;;;;;;6.14;85.04;101565.41;5000312;28;20038;-73
2023/04/06 04:24:13;;;;;;;14.45;10.85;;;;;;;6.14;84.99;101567.16;5001041;28;20246;-73
2023/04/06 04:26:40;;;;;;;15.63;10.63;;;;;;;6.15;85.05;101568.88;4999978;28;20050;-73
2023/04/06 04:29:06;;;;;;;16.30;11.38;;;;;;;6.15;85.07;101566.28;4999505;28;20038;-71
2023/04/06 04:31:31;;;;;;;15.10;11.40;;;;;;;6.15;85.05;101567.13;5000161;28;20046;-70
2023/04/06 04:33:57;;;;;;;17.63;11.75;;;;;;;6.16;85.15;101568.00;5000841;28;20363;-71
2023/04/06 04:36:24;;;;;;;15.55;11.52;;;;;;;6.15;85.06;101566.28;5000186;28;20054;-71
2023/04/06 04:38:49;;;;;;;16.88;11.75;;;;;;;6.17;85.12;101564.53;5000321;28;20046;-71
2023/04/06 04:41:15;;;;;;;16.35;11.73;;;;;;;6.17;85.21;101564.53;5000247;28;20049;-71
2023/04/06 04:43:40;;;;;;;17.27;11.70;;;;;;;6.17;85.21;101569.72;5000160;28;20097;-71
2023/04/06 04:46:06;;;;;;;15.95;12.10;;;;;;;6.17;85.13;101572.34;4996174;28;20045;-71
2023/04/06 04:48:32;;;;;;;18.52;12.18;;;;;;;6.18;85.16;101563.63;5000441;28;20042;-72
2023/04/06 04:50:57;;;;;;;15.52;11.40;;;;;;;6.18;85.20;101566.22;5000128;28;20372;-71
2023/04/06 04:53:22;;;;;;;20.15;12.90;;;;;;;6.18;85.21;101568.84;5000798;28;20096;-71
2023/04/06 04:55:48;;;;;;;17.48;11.73;;;;;;;6.19;85.26;101565.38;4999823;28;20041;-71
2023/04/06 04:58:18;;;;;;;19.92;12.98;;;;;;;6.19;85.21;101564.53;4999767;28;20265;-71
2023/04/06 05:00:44;;;;;;;20.35;12.68;;;;;;;6.20;85.25;101567.06;4999933;28;20026;-71
2023/04/06 05:03:17;;;;;;;18.45;12.20;;;;;;;6.21;85.46;101566.22;4999768;28;20230;-71
2023/04/06 05:05:42;;;;;;;18.98;12.98;;;;;;;6.22;85.48;101567.06;4999795;28;20038;-71
2023/04/06 05:08:08;;;;;;;20.15;12.48;;;;;;;6.22;85.45;101562.75;5000112;28;20129;-71
2023/04/06 05:10:35;;;;;;;17.58;12.05;;;;;;;6.22;85.61;101562.75;4999605;28;20226;-71
2023/04/06 05:13:00;;;;;;;19.17;12.32;;;;;;;6.22;85.50;101564.47;4999492;28;20052;-71
2023/04/06 05:15:26;;;;;;;21.20;13.77;;;;;;;6.23;85.49;101567.06;5000010;28;20046;-71
2023/04/06 05:17:51;;;;;;;21.83;13.55;;;;;;;6.22;85.81;101560.16;4999302;28;20042;-71
2023/04/06 05:20:17;;;;;;;20.55;13.52;;;;;;;6.24;85.73;101563.59;4999934;28;20077;-73
2023/04/06 05:22:42;;;;;;;16.95;12.00;;;;;;;6.25;85.80;101556.63;4999161;28;20042;-73
2023/04/06 05:25:08;;;;;;;20.88;14.05;;;;;;;6.25;85.85;101556.63;4999840;28;20112;-71
2023/04/06 05:27:33;;;;;;;18.85;12.40;;;;;;;6.25;85.90;101554.88;4997578;28;20045;-71
2023/04/06 05:29:59;;;;;;;20.80;13.73;;;;;;;6.26;86.03;101556.63;4999608;28;20037;-71
2023/04/06 05:32:25;;;;;;;20.58;13.35;;;;;;;6.27;85.88;101555.72;4999484;28;20038;-71
2023/04/06 05:34:50;;;;;;;19.70;13.07;;;;;;;6.27;85.94;101558.31;4999713;28;20057;-71
2023/04/06 05:37:16;;;;;;;21.33;13.93;;;;;;;6.27;85.96;101547.91;4999398;28;20309;-71
2023/04/06 05:39:41;;;;;;;21.02;14.02;;;;;;;6.29;85.88;101558.31;4999218;28;20046;-71
2023/04/06 05:42:07;;;;;;;21.60;14.45;;;;;;;6.28;85.92;101547.06;4999211;28;20341;-71
2023/04/06 05:44:32;;;;;;;25.65;16.05;;;;;;;6.28;85.94;101547.06;4999010;28;20053;-70
2023/04/06 05:46:58;;;;;;;21.70;14.38;;;;;;;6.30;85.90;101552.25;4999010;28;20217;-73
2023/04/06 05:49:23;;;;;;;24.42;15.65;;;;;;;6.30;85.94;101547.91;4999532;28;20412;-71
2023/04/06 05:51:48;;;;;;;22.35;15.27;;;;;;;6.31;86.01;101540.94;4998481;28;20042;-73
2023/04/06 05:54:14;;;;;;;22.88;15.00;;;;;;;6.32;86.18;101545.28;4999444;28;20042;-71
2023/04/06 05:56:40;;;;;;;26.33;15.77;;;;;;;6.33;86.33;101540.06;4998019;28;20030;-71
2023/04/06 05:59:05;;;;;;;25.42;16.42;;;;;;;6.35;86.32;101545.25;4998918;28;20096;-71
2023/04/06 06:01:31;;;;;;;22.35;15.57;;;;;;;6.34;86.27;101538.31;4998628;28;20218;-71
2023/04/06 06:03:56;;;;;;;23.98;16.02;;;;;;;6.35;86.50;101537.44;4998453;28;20410;-71
2023/04/06 06:06:21;;;;;;;23.30;15.98;;;;;;;6.36;86.51;101546.09;4999000;28;20360;-72
2023/04/06 06:08:47;;;;;;;22.50;14.88;;;;;;;6.38;86.65;101552.16;4997102;28;20041;-71
2023/04/06 06:11:12;;;;;;;27.13;15.80;;;;;;;6.38;86.84;101542.59;4999136;28;20291;-71
2023/04/06 06:13:38;;;;;;;27.45;16.05;;;;;;;6.39;86.76;101535.66;4997384;28;20056;-71
2023/04/06 06:16:05;;;;;;;26.08;15.93;;;;;;;6.41;86.85;101536.50;4998947;28;20327;-71
2023/04/06 06:18:30;;;;;;;27.00;17.27;;;;;;;6.41;87.05;101541.72;4998645;28;20114;-72
2023/04/06 06:20:55;;;;;;;28.00;17.92;;;;;;;6.42;86.79;101548.63;4989959;28;20063;-72
2023/04/06 06:23:21;;;;;;;32.08;19.58;;;;;;;6.41;86.89;101539.97;4988550;28;20053;-72
2023/04/06 06:25:46;;;;;;;27.20;16.88;;;;;;;6.43;86.90;101537.34;4988483;28;20035;-72
2023/04/06 06:28:12;;;;;;;29.27;17.95;;;;;;;6.44;87.03;101539.06;4986974;28;20106;-72
2023/04/06 06:30:37;;;;;;;29.90;18.30;;;;;;;6.45;86.97;101540.78;4987763;28;20046;-72
2023/04/06 06:33:03;;;;;;;27.80;17.83;;;;;;;6.46;86.98;101540.78;4990475;28;20046;-72
2023/04/06 06:35:28;;;;;;;28.02;18.52;;;;;;;6.47;86.95;101539.88;4988771;28;20245;-72
2023/04/06 06:37:54;;;;;;;29.83;18.42;;;;;;;6.48;87.04;101535.56;4985985;28;20030;-72
2023/04/06 06:40:23;;;;;;;27.95;18.70;;;;;;;6.49;86.91;101543.34;4988776;28;20265;-72
2023/04/06 06:42:48;;;;;;;30.27;18.73;;;;;;;6.50;86.99;101546.81;4988161;28;20400;-72
2023/04/06 06:45:14;;;;;;;30.67;18.50;;;;;;;6.51;86.95;101546.78;4988634;28;20288;-72
2023/04/06 06:47:41;;;;;;;31.52;18.90;;;;;;;6.51;87.07;101538.97;4990439;28;20042;-72
2023/04/06 06:50:07;;;;;;;35.20;20.63;;;;;;;6.53;87.03;101534.63;4988550;28;20042;-71
2023/04/06 06:52:32;;;;;;;36.10;21.50;;;;;;;6.52;86.39;101532.88;4987475;28;20054;-71
2023/04/06 06:54:58;;;;;;;32.50;20.15;;;;;;;6.54;86.47;101531.13;4986351;28;20045;-72
2023/04/06 06:57:23;;;;;;;31.40;19.05;;;;;;;6.57;86.53;101532.84;4985598;28;20046;-71
2023/04/06 06:59:48;;;;;;;29.63;18.17;;;;;;;6.59;86.78;101530.22;4984887;28;20039;-72
2023/04/06 07:02:14;;;;;;;34.15;18.73;;;;;;;6.60;86.67;101524.97;4991140;28;20045;-72
2023/04/06 07:04:39;;;;;;;33.22;20.42;;;;;;;6.61;86.85;101537.13;4987915;28;20058;-71
2023/04/06 07:07:05;;;;;;;29.75;18.40;;;;;;;6.64;86.76;101528.38;4991558;28;20093;-72
2023/04/06 07:09:30;;;;;;;32.60;20.42;;;;;;;6.65;87.14;101528.38;4994348;28;20344;-72
2023/04/06 07:11:56;;;;;;;36.17;19.58;;;;;;;6.67;87.15;101523.16;4997330;28;20042;-72
2023/04/06 07:14:21;;;;;;;29.88;19.15;;;;;;;6.68;87.07;101525.75;4995620;28;20030;-72
2023/04/06 07:16:48;;;;;;;34.38;19.80;;;;;;;6.68;87.01;101524.88;4995007;28;20152;-71
2023/04/06 07:19:14;;;;;;;28.70;19.20;;;;;;;6.70;87.01;101525.72;4989282;28;20356;-71
2023/04/06 07:21:39;;;;;;;37.08;20.23;;;;;;;6.70;87.04;101513.56;4997152;28;20282;-72
2023/04/06 07:24:05;;;;;;;34.20;20.50;;;;;;;6.72;87.07;101517.00;4995258;28;20105;-71
2023/04/06 07:26:30;;;;;;;31.67;19.30;;;;;;;6.76;87.25;101515.22;4988455;28;20066;-71
2023/04/06 07:28:55;;;;;;;28.23;18.40;;;;;;;6.77;87.32;101514.34;4990439;28;20022;-72
2023/04/06 07:31:21;;;;;;;36.22;19.13;;;;;;;6.79;87.71;101512.56;4988102;28;20048;-71
2023/04/06 07:33:46;;;;;;;28.00;18.70;;;;;;;6.79;87.63;101509.13;4988445;28;20404;-71
2023/04/06 07:36:12;;;;;;;34.70;20.42;;;;;;;6.81;87.59;101509.97;4987994;28;20045;-71
2023/04/06 07:38:37;;;;;;;29.15;18.50;;;;;;;6.83;87.97;101513.41;4987854;28;20058;-72
2023/04/06 07:41:03;;;;;;;30.90;19.00;;;;;;;6.85;88.20;101512.47;4989763;28;20076;-71
2023/04/06 07:43:30;;;;;;;27.83;17.63;;;;;;;6.88;88.49;101516.78;4990929;28;20252;-71
2023/04/06 07:45:57;;;;;;;29.92;18.52;;;;;;;6.90;88.55;101510.66;4991155;28;20046;-71
2023/04/06 07:48:22;;;;;;;28.35;18.23;;;;;;;6.92;88.78;101514.09;4987249;28;20042;-71
2023/04/06 07:50:48;;;;;;;27.50;18.58;;;;;;;6.95;88.66;101518.44;4985225;28;20040;-71
2023/04/06 07:53:13;;;;;;;32.80;20.42;;;;;;;6.97;88.88;101511.44;4990207;28;20337;-71
2023/04/06 07:55:38;;;;;;;27.00;18.13;;;;;;;7.00;88.80;101515.75;4995967;28;20073;-72
2023/04/06 07:58:04;;;;;;;29.35;18.70;;;;;;;7.02;89.03;101519.19;4996313;28;20070;-72
2023/04/06 08:00:30;;;;;;;32.22;20.40;;;;;;;7.03;89.20;101513.94;4996275;28;20049;-72
2023/04/06 08:02:55;;;;;;;33.53;20.00;;;;;;;7.05;89.26;101517.38;4994235;28;20098;-71
2023/04/06 08:05:21;;;;;;;34.90;21.00;;;;;;;7.06;89.64;101520.88;4994857;28;20054;-71
2023/04/06 08:07:46;;;;;;;33.40;20.60;;;;;;;7.07;89.97;101523.44;4996562;28;20038;-71
2023/04/06 08:10:12;;;;;;;36.55;22.05;;;;;;;7.09;90.25;101519.09;4996207;28;20341;-72
2023/04/06 08:12:37;;;;;;;32.33;20.48;;;;;;;7.10;90.58;101514.72;4995741;28;20045;-71
2023/04/06 08:15:03;;;;;;;29.67;19.50;;;;;;;7.13;90.62;101517.28;4995128;28;20038;-72
2023/04/06 08:17:30;;;;;;;32.40;19.02;;;;;;;7.15;90.94;101522.44;4997228;28;20321;-72
2023/04/06 08:19:55;;;;;;;35.88;23.25;;;;;;;7.17;92.16;101521.56;4996720;28;20038;-71
2023/04/06 08:22:21;;;;;;;31.15;22.00;;;;;;;7.18;92.49;101519.81;5000450;28;20221;-72
2023/04/06 08:24:46;;;;;;;32.47;20.73;;;;;;;7.20;92.38;101516.28;4998151;28;20113;-72
2023/04/06 08:27:13;;;;;;;40.65;21.60;;;;;;;7.22;92.33;101524.09;4999744;28;20129;-72
2023/04/06 08:29:39;;;;;;;32.65;20.83;;;;;;;7.24;92.33;101532.72;4998937;28;20041;-71
2023/04/06 08:32:05;;;;;;;34.13;21.58;;;;;;;7.24;92.50;101525.78;5000066;28;20038;-71
2023/04/06 08:34:32;;;;;;;31.60;19.63;;;;;;;7.27;92.32;101527.47;4998935;28;20049;-72
2023/04/06 08:36:58;;;;;;;33.60;20.60;;;;;;;7.29;92.43;101528.31;4999631;28;20042;-72
2023/04/06 08:39:25;;;;;;;34.10;20.25;;;;;;;7.29;92.91;101523.97;4997359;28;20206;-72
2023/04/06 08:41:52;;;;;;;37.13;20.45;;;;;;;7.32;92.82;101525.66;4999100;28;20041;-72
2023/04/06 08:44:18;;;;;;;31.02;20.98;;;;;;;7.34;93.17;101523.91;4999016;28;20038;-72
2023/04/06 08:46:44;;;;;;;30.38;20.17;;;;;;;7.35;93.53;101520.41;4998192;28;20034;-72
2023/04/06 08:49:09;;;;;;;33.92;19.95;;;;;;;7.38;94.36;101525.56;4999161;28;20329;-72
2023/04/06 08:51:37;;;;;;;27.73;18.25;;;;;;;7.38;94.22;101525.56;4998408;28;20046;-72
2023/04/06 08:54:03;;;;;;;30.10;18.30;;;;;;;7.39;94.33;101513.41;4999413;28;20030;-72
2023/04/06 08:56:28;;;;;;;32.17;18.02;;;;;;;7.41;94.57;101517.69;4999453;28;20128;-71
2023/04/06 08:58:55;;;;;;;31.20;18.77;;;;;;;7.43;94.81;101515.91;4992342;28;20148;-71
2023/04/06 09:01:23;;;;;;;27.20;18.35;;;;;;;7.45;95.10;101511.53;4995731;28;20053;-72
2023/04/06 09:03:50;;;;;;;29.83;17.17;;;;;;;7.48;95.05;101508.03;4997119;28;20066;-72
2023/04/06 09:06:15;;;;;;;21.95;14.45;;;;;;;7.48;95.24;101514.09;4998312;28;20061;-72
2023/04/06 09:08:41;;;;;;;23.02;15.82;;;;;;;7.49;95.18;101510.63;4998665;28;20252;-72
2023/04/06 09:11:07;;;;;;;24.75;15.15;;;;;;;7.50;95.27;101512.31;4995405;28;20053;-72
2023/04/06 09:13:56;;;;;;;21.13;14.25;;;;;;;7.52;95.12;101512.31;4996108;28;20109;-71
2023/04/06 09:16:22;;;;;;;20.85;13.50;;;;;;;7.54;95.14;101509.69;4999030;28;20125;-71
2023/04/06 09:18:49;;;;;;;26.50;13.63;;;;;;;7.55;95.16;101511.38;4998691;28;20093;-71
2023/04/06 09:21:21;;;;;;;19.10;11.93;;;;;;;7.56;95.20;101507.91;4998663;28;20042;-72
2023/04/06 09:23:48;;;;;;;17.17;12.00;;;;;;;7.57;95.32;101509.63;4999311;28;20441;-71
2023/04/06 09:26:15;;;;;;;19.55;11.98;;;;;;;7.58;95.36;101503.50;4995270;28;20038;-71
2023/04/06 09:28:51;;;;;;;19.77;11.00;;;;;;;7.59;95.71;101511.31;4998358;28;20037;-71
2023/04/06 09:31:22;;;;;;;17.60;11.20;;;;;;;7.60;95.47;101506.94;4997646;28;20046;-71
2023/04/06 09:33:48;;;;;;;21.13;11.70;;;;;;;7.60;95.63;101507.81;4998334;28;20034;-71
2023/04/06 09:36:15;;;;;;;16.45;10.73;;;;;;;7.60;95.73;101502.59;4998866;28;20255;-72
2023/04/06 09:38:56;;;;;;;15.48;11.00;;;;;;;7.61;96.03;101500.88;4998532;28;20045;-72
2023/04/06 09:41:28;;;;;;;16.17;10.52;;;;;;;7.62;96.37;101499.97;4997937;28;20358;-71
2023/04/06 09:44:10;;;;;;;16.38;11.00;;;;;;;7.64;96.22;101495.56;4995293;28;20040;-71
2023/04/06 09:46:43;;;;;;;16.65;10.70;;;;;;;7.63;96.68;101497.31;4996822;28;20045;-71
2023/04/06 09:49:10;;;;;;;18.52;11.93;;;;;;;7.65;96.73;101499.91;4999319;28;20038;-72
2023/04/06 09:51:43;;;;;;;18.25;11.50;;;;;;;7.64;97.05;101493.84;4997020;28;20038;-74
2023/04/06 09:54:09;;;;;;;18.15;11.00;;;;;;;7.65;97.09;101489.47;4999398;28;20237;-71
2023/04/06 09:57:11;;;;;;;16.90;11.27;;;;;;;7.65;97.30;101492.09;4997783;28;20069;-71
2023/04/06 09:59:59;;;;;;;14.68;10.05;;;;;;;7.65;97.46;101486.88;4966247;28;20104;-71
2023/04/06 10:02:31;;;;;;;15.13;9.50;;;;;;;7.64;97.30;101491.25;4995724;28;20260;-71
2023/04/06 10:05:02;;;;;;;13.27;9.68;;;;;;;7.64;97.43;101487.75;4997894;28;20489;-71
2023/04/06 10:07:28;;;;;;;15.32;9.90;;;;;;;7.65;97.90;101486.88;4997568;28;20511;-71
2023/04/06 10:09:54;;;;;;;11.38;9.35;;;;;;;7.64;98.15;101485.16;4995800;28;20030;-71
2023/04/06 10:12:20;;;;;;;9.95;8.57;;;;;;;7.65;98.07;101484.28;4998122;28;20046;-71
2023/04/06 10:14:45;;;;;;;12.20;9.23;;;;;;;7.65;98.17;101484.28;4995678;28;20046;-71
2023/04/06 10:17:11;;;;;;;12.73;9.02;;;;;;;7.64;98.23;101475.59;4997425;28;20037;-71
2023/04/06 10:19:59;;;;;;;11.80;9.55;;;;;;;7.64;98.44;101478.22;4995144;28;20038;-71
2023/04/06 10:22:56;;;;;;;11.90;8.55;;;;;;;7.64;98.77;101479.94;4992129;28;20030;-71
2023/04/06 10:25:28;;;;;;;11.90;9.07;;;;;;;7.65;98.88;101476.44;4991016;28;20026;-71
2023/04/06 10:28:07;;;;;;;12.50;9.38;;;;;;;7.65;99.09;101466.03;4991844;28;20080;-72
2023/04/06 10:30:42;;;;;;;13.63;9.05;;;;;;;7.65;99.02;101468.63;4989960;28;20105;-72
2023/04/06 10:33:14;;;;;;;12.52;9.18;;;;;;;7.65;99.22;101469.47;4991838;28;20022;-72
2023/04/06 10:35:40;;;;;;;12.07;8.85;;;;;;;7.67;99.50;101467.69;4991670;28;20030;-72
2023/04/06 10:38:05;;;;;;;10.82;9.13;;;;;;;7.67;99.70;101461.63;4992132;28;20117;-71
2023/04/06 10:40:33;;;;;;;11.32;9.48;;;;;;;7.67;99.93;101459.03;4990243;28;20038;-72
2023/04/06 10:43:18;;;;;;;11.02;9.40;;;;;;;7.69;100.00;101446.81;4989454;28;20085;-72
2023/04/06 10:45:44;;;;;;;14.20;9.93;;;;;;;7.69;100.00;101460.75;4992568;28;20049;-72
2023/04/06 10:48:17;;;;;;;16.10;10.15;;;;;;;7.69;100.00;101452.03;4994788;28;20050;-72
2023/04/06 10:50:48;;;;;;;14.80;10.35;;;;;;;7.69;100.00;101444.22;4991130;28;20097;-72
2023/04/06 10:53:22;;;;;;;12.70;10.70;;;;;;;7.69;100.00;101447.69;4991198;28;20050;-72
2023/04/06 10:55:49;;;;;;;11.60;9.23;;;;;;;7.70;100.00;101435.53;4992048;28;20034;-72
2023/04/06 10:58:15;;;;;;;15.50;10.93;;;;;;;7.71;100.00;101442.44;4993350;28;20365;-71
2023/04/06 11:00:45;;;;;;;13.43;9.57;;;;;;;7.72;100.00;101438.09;4992703;28;20109;-71
2023/04/06 11:03:10;;;;;;;16.55;10.00;;;;;;;7.73;100.00;101431.97;4989662;28;20039;-71
2023/04/06 11:05:36;;;;;;;13.95;9.68;;;;;;;7.74;100.00;101431.09;4991129;28;20122;-72
2023/04/06 11:08:01;;;;;;;12.93;9.65;;;;;;;7.75;100.00;101433.69;4993732;28;20149;-71
2023/04/06 11:10:27;;;;;;;11.05;9.38;;;;;;;7.75;100.00;101436.28;4993938;28;20034;-71
2023/04/06 11:12:54;;;;;;;11.02;9.18;;;;;;;7.77;100.00;101439.72;4990801;28;20337;-72
2023/04/06 11:15:20;;;;;;;12.23;9.73;;;;;;;7.76;100.00;101434.53;4987794;28;20030;-72
2023/04/06 11:17:45;;;;;;;11.57;9.13;;;;;;;7.77;100.00;101428.44;4988989;28;20049;-72
2023/04/06 11:20:11;;;;;;;11.75;9.82;;;;;;;7.78;100.00;101422.31;4989721;28;20261;-72
2023/04/06 11:22:48;;;;;;;10.40;8.93;;;;;;;7.78;100.00;101428.38;4991133;28;20042;-72
2023/04/06 11:25:14;;;;;;;10.63;9.07;;;;;;;7.78;100.00;101424.94;4989662;28;20138;-72
2023/04/06 11:27:39;;;;;;;11.70;9.50;;;;;;;7.77;100.00;101416.25;4992527;28;20026;-72
2023/04/06 11:30:07;;;;;;;9.75;8.85;;;;;;;7.78;100.00;101417.97;4993383;28;20033;-72
2023/04/06 11:32:43;;;;;;;9.70;8.65;;;;;;;7.79;100.00;101416.22;4992372;28;20139;-72
2023/04/06 11:35:19;;;;;;;12.35;9.43;;;;;;;7.79;100.00;101422.31;4992813;28;20060;-72
2023/04/06 11:37:45;;;;;;;12.35;9.30;;;;;;;7.80;100.00;101407.50;4990509;28;20107;-72